Time;durP1;ratioP1;P1;durP2;ratioP2;P2;SDS_P1;SDS_P2;PMS_P1;PMS_P2;Temp;Humidity;BMP_temperature;BMP_pressure;BME280_temperature;BME280_humidity;BME280_pressure;Samples;Min_cycle;Max_cycle;Signal;HPM_P1;HPM_P2
2023/06/22 00:01:54;;;;;;;5.55;5.05;;;22.80;59.10;;;;;;6038684;23;20073;-80
2023/06/22 00:04:20;;;;;;;7.22;4.88;;;22.70;60.50;;;;;;6062613;23;20034;-80
2023/06/22 00:06:45;;;;;;;6.85;5.10;;;22.70;60.60;;;;;;6061450;23;20011;-80
2023/06/22 00:09:11;;;;;;;7.22;4.97;;;22.60;61.00;;;;;;6063907;23;20034;-79
2023/06/22 00:11:37;;;;;;;7.30;5.25;;;22.70;60.00;;;;;;6063655;23;20015;-79
2023/06/22 00:14:03;;;;;;;7.53;5.97;;;22.80;59.60;;;;;;6039755;23;20497;-80
2023/06/22 00:16:29;;;;;;;6.72;4.75;;;22.70;58.60;;;;;;6015596;23;20019;-80
2023/06/22 00:18:54;;;;;;;5.60;4.93;;;22.60;59.10;;;;;;6059123;23;20076;-80
2023/06/22 00:21:20;;;;;;;10.70;5.20;;;22.70;59.50;;;;;;6057087;23;20098;-80
2023/06/22 00:23:47;;;;;;;7.43;4.95;;;22.60;59.60;;;;;;6056317;23;20385;-81
2023/06/22 00:26:13;;;;;;;8.30;4.82;;;22.60;60.50;;;;;;6034539;23;20019;-80
2023/06/22 00:28:38;;;;;;;5.13;4.50;;;22.60;59.40;;;;;;6034578;23;20019;-81
2023/06/22 00:31:04;;;;;;;7.20;4.43;;;22.60;60.20;;;;;;6058729;23;20019;-81
2023/06/22 00:33:29;;;;;;;6.72;5.18;;;22.60;59.20;;;;;;6035117;23;20039;-81
2023/06/22 00:35:55;;;;;;;7.68;6.07;;;22.60;60.40;;;;;;6058264;23;20015;-81
2023/06/22 00:38:20;;;;;;;6.07;3.58;;;22.60;60.10;;;;;;6032139;23;20014;-81
2023/06/22 00:40:46;;;;;;;7.72;5.20;;;22.60;60.10;;;;;;6056602;23;20319;-81
2023/06/22 00:43:12;;;;;;;9.90;5.28;;;22.50;59.10;;;;;;6032341;23;20098;-80
2023/06/22 00:45:38;;;;;;;7.78;5.47;;;22.50;61.20;;;;;;6055428;23;20019;-80
2023/06/22 00:48:04;;;;;;;7.95;5.10;;;22.40;59.40;;;;;;6033156;23;20078;-80
2023/06/22 00:50:33;;;;;;;6.05;5.13;;;22.40;61.30;;;;;;6053807;23;20042;-80
2023/06/22 00:52:59;;;;;;;8.48;5.10;;;22.40;60.00;;;;;;6056841;23;20011;-80
2023/06/22 00:55:28;;;;;;;9.68;5.95;;;22.40;59.40;;;;;;6053896;23;20556;-80
2023/06/22 00:57:55;;;;;;;6.95;5.05;;;22.30;60.00;;;;;;6056374;23;20533;-80
2023/06/22 01:00:24;;;;;;;7.38;6.15;;;22.30;60.50;;;;;;6033355;23;20023;-80
2023/06/22 01:02:51;;;;;;;8.60;5.85;;;22.10;60.10;;;;;;6056452;23;20099;-80
2023/06/22 01:05:17;;;;;;;5.75;5.05;;;22.20;60.10;;;;;;6056178;23;20025;-80
2023/06/22 01:08:00;;;;;;;5.85;4.88;;;22.10;61.70;;;;;;6032695;23;20354;-81
2023/06/22 01:10:46;;;;;;;6.68;5.70;;;22.20;61.80;;;;;;6033078;23;20022;-81
2023/06/22 01:13:20;;;;;;;9.70;6.32;;;22.10;60.00;;;;;;6032432;23;20018;-81
2023/06/22 01:15:49;;;;;;;7.03;5.75;;;22.00;58.90;;;;;;6032513;23;20011;-81
2023/06/22 01:18:14;;;;;;;10.43;6.30;;;22.00;61.00;;;;;;6056013;23;20354;-82
2023/06/22 01:20:40;;;;;;;12.13;6.35;;;21.90;62.50;;;;;;6031265;23;20019;-82
2023/06/22 01:23:18;;;;;;;9.27;6.30;;;21.90;65.30;;;;;;6032610;23;20106;-81
2023/06/22 01:26:19;;;;;;;9.55;6.47;;;21.80;62.20;;;;;;6057610;23;20018;-82
2023/06/22 01:28:46;;;;;;;8.30;7.28;;;21.80;65.40;;;;;;6019213;23;20026;-81
2023/06/22 01:31:13;;;;;;;9.30;7.72;;;21.80;63.50;;;;;;6033022;23;20025;-81
2023/06/22 01:33:41;;;;;;;9.48;8.10;;;21.70;63.40;;;;;;6032470;23;20015;-81
2023/06/22 01:36:06;;;;;;;10.10;9.05;;;21.70;61.80;;;;;;6009047;23;20074;-81
2023/06/22 01:38:32;;;;;;;9.00;7.43;;;21.70;65.90;;;;;;6009283;23;20014;-81
2023/06/22 01:40:58;;;;;;;8.80;7.72;;;21.60;63.50;;;;;;6007841;23;20019;-80
2023/06/22 01:43:25;;;;;;;10.65;8.38;;;21.80;63.70;;;;;;6053692;23;20014;-80
2023/06/22 01:45:50;;;;;;;20.73;9.90;;;21.70;64.20;;;;;;6031615;23;20018;-80
2023/06/22 01:48:16;;;;;;;9.40;8.32;;;21.60;63.30;;;;;;6009030;23;20042;-80
2023/06/22 01:50:42;;;;;;;14.02;8.90;;;21.60;63.80;;;;;;6032773;23;20015;-82
2023/06/22 01:53:08;;;;;;;11.32;8.60;;;21.60;64.30;;;;;;6008598;23;20081;-81
2023/06/22 01:55:33;;;;;;;11.25;9.95;;;21.60;64.80;;;;;;6034563;23;20014;-81
2023/06/22 01:57:59;;;;;;;12.18;10.82;;;21.70;63.30;;;;;;6034145;23;20010;-81
2023/06/22 02:00:25;;;;;;;11.82;7.97;;;21.60;63.10;;;;;;6034548;23;20019;-82
2023/06/22 02:03:03;;;;;;;18.95;10.98;;;21.60;64.60;;;;;;6010693;23;20015;-81
2023/06/22 02:05:33;;;;;;;17.10;9.93;;;21.70;61.90;;;;;;6034835;23;20399;-82
2023/06/22 02:08:07;;;;;;;13.77;10.75;;;21.60;62.50;;;;;;6011033;23;20050;-81
2023/06/22 02:10:32;;;;;;;16.52;10.98;;;21.70;64.30;;;;;;6034098;23;20066;-81
2023/06/22 02:12:58;;;;;;;13.70;11.23;;;21.60;65.50;;;;;;6034491;23;20022;-82
2023/06/22 02:15:24;;;;;;;13.68;11.20;;;21.60;64.50;;;;;;6033911;23;20042;-82
2023/06/22 02:17:49;;;;;;;13.55;11.15;;;21.50;65.30;;;;;;6057696;23;20393;-80
2023/06/22 02:20:15;;;;;;;12.82;11.15;;;21.50;66.50;;;;;;6033487;23;20027;-80
2023/06/22 02:22:40;;;;;;;14.68;10.63;;;21.60;67.80;;;;;;6057873;23;20014;-81
2023/06/22 02:25:06;;;;;;;14.00;11.75;;;21.50;64.90;;;;;;6033582;23;20464;-81
2023/06/22 02:27:32;;;;;;;13.32;10.95;;;21.60;65.90;;;;;;6033552;23;20339;-80
2023/06/22 02:29:58;;;;;;;13.52;11.48;;;21.50;65.20;;;;;;6055932;23;20005;-81
2023/06/22 02:32:23;;;;;;;12.05;10.80;;;21.50;64.40;;;;;;6057100;23;20019;-81
2023/06/22 02:34:49;;;;;;;16.10;11.07;;;21.50;64.60;;;;;;6034036;23;20043;-81
2023/06/22 02:37:14;;;;;;;14.63;10.63;;;21.50;65.50;;;;;;6033485;23;20736;-82
2023/06/22 02:39:40;;;;;;;14.35;12.07;;;21.50;66.10;;;;;;6032692;23;20011;-81
2023/06/22 02:42:06;;;;;;;15.82;12.25;;;21.40;64.60;;;;;;6055902;23;20121;-81
2023/06/22 02:44:31;;;;;;;16.08;13.18;;;21.40;66.70;;;;;;6056866;23;20018;-81
2023/06/22 02:46:58;;;;;;;16.58;12.63;;;21.30;66.00;;;;;;6031130;23;20090;-81
2023/06/22 02:49:24;;;;;;;14.15;12.48;;;21.30;66.10;;;;;;6031157;23;20449;-81
2023/06/22 02:51:49;;;;;;;10.95;9.02;;;21.20;70.70;;;;;;6055769;23;20015;-81
2023/06/22 02:54:16;;;;;;;13.55;11.73;;;21.20;67.60;;;;;;6007995;23;20018;-81
2023/06/22 02:56:43;;;;;;;16.10;12.45;;;21.20;66.90;;;;;;6032317;23;20018;-81
2023/06/22 02:59:10;;;;;;;15.38;12.00;;;21.10;68.70;;;;;;6031460;23;20018;-81
2023/06/22 03:01:39;;;;;;;15.68;10.38;;;21.10;68.10;;;;;;6057132;23;20018;-82
2023/06/22 03:04:08;;;;;;;14.48;12.98;;;21.10;68.10;;;;;;6033457;23;20038;-82
2023/06/22 03:06:33;;;;;;;16.60;13.13;;;21.10;71.20;;;;;;6056271;23;20334;-81
2023/06/22 03:09:00;;;;;;;14.35;11.90;;;21.00;68.90;;;;;;6031850;23;20102;-82
2023/06/22 03:11:26;;;;;;;18.42;13.60;;;20.90;70.30;;;;;;6030879;23;20015;-82
2023/06/22 03:13:52;;;;;;;16.05;12.02;;;20.90;69.30;;;;;;6055082;23;20022;-82
2023/06/22 03:16:18;;;;;;;14.73;13.20;;;20.80;71.00;;;;;;6055330;23;20094;-82
2023/06/22 03:18:44;;;;;;;16.83;13.18;;;20.80;68.60;;;;;;6032813;23;20018;-81
2023/06/22 03:21:10;;;;;;;16.50;14.90;;;20.70;71.80;;;;;;6056147;23;20071;-81
2023/06/22 03:23:36;;;;;;;15.60;14.00;;;20.70;73.30;;;;;;6032379;23;20011;-82
2023/06/22 03:26:02;;;;;;;15.05;13.40;;;20.70;72.50;;;;;;6056127;23;20018;-81
2023/06/22 03:28:27;;;;;;;18.52;14.57;;;20.60;71.40;;;;;;6055231;23;20358;-81
2023/06/22 03:30:53;;;;;;;16.13;14.07;;;20.60;73.00;;;;;;6055205;23;20014;-81
2023/06/22 03:33:18;;;;;;;17.15;14.80;;;20.50;71.50;;;;;;6055962;23;20019;-81
2023/06/22 03:35:44;;;;;;;22.95;14.73;;;20.50;69.10;;;;;;6031650;23;20522;-81
2023/06/22 03:38:09;;;;;;;18.77;14.77;;;20.50;70.50;;;;;;6055722;23;20201;-81
2023/06/22 03:40:35;;;;;;;18.30;16.35;;;20.40;72.00;;;;;;6032344;23;20011;-81
2023/06/22 03:43:00;;;;;;;17.83;15.43;;;20.30;71.00;;;;;;6031748;23;20014;-81
2023/06/22 03:45:26;;;;;;;18.33;14.60;;;20.40;69.80;;;;;;6031530;23;20034;-81
2023/06/22 03:47:52;;;;;;;18.67;15.98;;;20.30;70.50;;;;;;6031890;23;20019;-81
2023/06/22 03:50:20;;;;;;;18.23;14.70;;;20.30;70.90;;;;;;6055587;23;20393;-80
2023/06/22 03:52:46;;;;;;;17.00;15.20;;;20.30;72.30;;;;;;6055214;23;20442;-80
2023/06/22 03:55:11;;;;;;;16.98;14.85;;;20.40;75.10;;;;;;6030149;23;20030;-80
2023/06/22 03:57:37;;;;;;;17.50;15.68;;;20.40;76.00;;;;;;6054931;23;20007;-79
2023/06/22 04:00:05;;;;;;;17.48;15.52;;;20.40;73.90;;;;;;6056016;23;20019;-81
2023/06/22 04:02:31;;;;;;;16.65;14.88;;;20.40;71.60;;;;;;6031464;23;20034;-80
2023/06/22 04:04:56;;;;;;;17.23;15.43;;;20.40;74.40;;;;;;6055749;23;20364;-80
2023/06/22 04:07:22;;;;;;;21.58;14.98;;;20.40;72.40;;;;;;6055242;23;20039;-81
2023/06/22 04:09:47;;;;;;;17.30;14.25;;;20.50;73.30;;;;;;6054866;23;20015;-80
2023/06/22 04:12:13;;;;;;;16.45;13.05;;;20.60;73.20;;;;;;6055383;23;20430;-80
2023/06/22 04:14:39;;;;;;;19.38;16.52;;;20.60;72.00;;;;;;6055025;23;20401;-79
2023/06/22 04:17:04;;;;;;;19.27;16.48;;;20.80;72.70;;;;;;6056396;23;20011;-79
2023/06/22 04:19:30;;;;;;;19.00;16.33;;;20.80;71.10;;;;;;6030868;23;20019;-79
2023/06/22 04:21:56;;;;;;;21.30;16.15;;;20.90;72.90;;;;;;6055744;23;20011;-79
2023/06/22 04:24:21;;;;;;;18.38;13.80;;;20.90;70.00;;;;;;6055438;23;20082;-80
2023/06/22 04:26:47;;;;;;;19.08;15.77;;;20.90;70.30;;;;;;6055357;23;20042;-80
2023/06/22 04:29:13;;;;;;;18.63;16.20;;;20.90;71.50;;;;;;6054563;23;20027;-80
2023/06/22 04:31:38;;;;;;;16.33;14.48;;;21.00;70.30;;;;;;6053682;23;20018;-82
2023/06/22 04:34:07;;;;;;;20.25;17.15;;;21.00;73.10;;;;;;6058320;23;20094;-82
2023/06/22 04:36:40;;;;;;;13.65;11.55;;;21.00;70.10;;;;;;6034143;23;20011;-82
2023/06/22 04:39:10;;;;;;;17.67;15.77;;;21.00;69.30;;;;;;6014480;23;20402;-82
2023/06/22 04:41:42;;;;;;;20.40;16.83;;;21.00;69.40;;;;;;5985821;23;20015;-82
2023/06/22 04:44:09;;;;;;;20.38;17.38;;;21.10;68.80;;;;;;6028921;23;20025;-81
2023/06/22 04:46:37;;;;;;;23.92;19.20;;;21.10;68.70;;;;;;6033575;23;20019;-81
2023/06/22 04:49:09;;;;;;;18.48;15.52;;;21.00;69.90;;;;;;6057177;23;20097;-80
2023/06/22 04:51:39;;;;;;;23.45;18.75;;;21.00;69.20;;;;;;6033238;23;20429;-80
2023/06/22 04:54:05;;;;;;;20.60;17.33;;;21.00;70.40;;;;;;6013731;23;20022;-80
2023/06/22 04:56:31;;;;;;;22.45;20.13;;;21.00;70.40;;;;;;5984929;23;20019;-81
2023/06/22 04:58:57;;;;;;;13.07;11.35;;;20.90;70.90;;;;;;6009116;23;20041;-82
2023/06/22 05:01:23;;;;;;;19.10;17.00;;;20.90;71.80;;;;;;5985416;23;20102;-81
2023/06/22 05:03:48;;;;;;;22.10;19.75;;;20.90;70.50;;;;;;6008234;23;20037;-81
2023/06/22 05:06:14;;;;;;;22.85;19.65;;;20.80;69.80;;;;;;6007998;23;20458;-81
2023/06/22 05:08:40;;;;;;;21.17;18.92;;;20.80;71.60;;;;;;5985812;23;20365;-82
2023/06/22 05:11:06;;;;;;;21.67;19.10;;;20.70;70.20;;;;;;6010052;23;20018;-82
2023/06/22 05:13:32;;;;;;;21.02;14.20;;;20.70;71.80;;;;;;6009295;23;20345;-80
2023/06/22 05:16:01;;;;;;;21.35;17.13;;;20.70;71.00;;;;;;5985115;23;20517;-82
2023/06/22 05:18:30;;;;;;;22.65;17.70;;;20.70;69.70;;;;;;6006365;23;20023;-82
2023/06/22 05:20:56;;;;;;;22.27;17.15;;;20.60;69.50;;;;;;6007393;23;20019;-80
2023/06/22 05:23:21;;;;;;;24.60;18.90;;;20.60;70.60;;;;;;6034744;23;20445;-81
2023/06/22 05:25:47;;;;;;;23.98;18.75;;;20.60;70.50;;;;;;6007862;23;20062;-81
2023/06/22 05:28:12;;;;;;;23.63;18.38;;;20.60;71.00;;;;;;6057178;23;20023;-81
2023/06/22 05:30:38;;;;;;;23.15;19.70;;;20.60;71.10;;;;;;5986091;23;20346;-79
2023/06/22 05:33:03;;;;;;;20.67;18.25;;;20.50;71.20;;;;;;6009568;23;20106;-79
2023/06/22 05:35:29;;;;;;;22.45;20.10;;;20.50;71.80;;;;;;6008972;23;20019;-79
2023/06/22 05:37:55;;;;;;;14.38;11.50;;;20.50;72.90;;;;;;6057176;23;20117;-79
2023/06/22 05:40:21;;;;;;;19.13;16.60;;;20.50;72.50;;;;;;5984695;23;20011;-79
2023/06/22 05:42:47;;;;;;;21.58;18.55;;;20.50;70.80;;;;;;6008955;23;20011;-79
2023/06/22 05:45:13;;;;;;;21.95;17.98;;;20.40;71.60;;;;;;6008490;23;20030;-81
2023/06/22 05:47:38;;;;;;;21.17;19.00;;;20.40;71.10;;;;;;6009148;23;20103;-78
2023/06/22 05:50:06;;;;;;;18.13;12.30;;;20.40;73.20;;;;;;5984715;23;20732;-79
2023/06/22 05:52:32;;;;;;;21.15;17.27;;;20.40;73.30;;;;;;5985391;23;20011;-80
2023/06/22 05:54:58;;;;;;;17.98;16.08;;;20.40;72.50;;;;;;6031194;23;20471;-79
2023/06/22 05:57:24;;;;;;;19.58;16.50;;;20.30;73.50;;;;;;6007681;23;20450;-80
2023/06/22 05:59:49;;;;;;;20.35;15.93;;;20.40;72.90;;;;;;5985011;23;20018;-79
2023/06/22 06:02:15;;;;;;;18.77;16.85;;;20.40;73.20;;;;;;6007926;23;20032;-79
2023/06/22 06:04:40;;;;;;;21.10;18.35;;;20.40;73.70;;;;;;6007614;23;20454;-78
2023/06/22 06:07:06;;;;;;;21.48;17.65;;;20.40;72.80;;;;;;6032066;23;20021;-81
2023/06/22 06:09:32;;;;;;;19.88;17.63;;;20.40;73.10;;;;;;6006647;23;20441;-80
2023/06/22 06:11:57;;;;;;;19.20;16.85;;;20.40;74.80;;;;;;5982424;23;20015;-80
2023/06/22 06:14:23;;;;;;;20.33;16.58;;;20.40;74.10;;;;;;6027605;23;20030;-80
2023/06/22 06:16:49;;;;;;;18.92;16.92;;;20.50;73.60;;;;;;6053449;23;20015;-81
2023/06/22 06:19:14;;;;;;;18.55;16.63;;;20.50;73.60;;;;;;6029310;23;20027;-80
2023/06/22 06:21:40;;;;;;;25.65;17.95;;;20.50;73.00;;;;;;6029438;23;20014;-79
2023/06/22 06:24:06;;;;;;;22.45;18.33;;;20.50;75.50;;;;;;6055599;23;20011;-79
2023/06/22 06:26:32;;;;;;;23.67;17.23;;;20.50;76.30;;;;;;6054382;23;20007;-81
2023/06/22 06:28:59;;;;;;;25.20;19.80;;;20.60;75.50;;;;;;6031981;23;20118;-78
2023/06/22 06:31:27;;;;;;;23.08;17.42;;;20.60;80.10;;;;;;6055793;23;20094;-80
2023/06/22 06:33:53;;;;;;;22.75;19.30;;;20.60;78.10;;;;;;6054864;23;20099;-79
2023/06/22 06:36:19;;;;;;;21.02;17.35;;;20.60;77.40;;;;;;6054613;23;20007;-79
2023/06/22 06:38:46;;;;;;;17.52;14.20;;;20.60;77.10;;;;;;6031777;23;20330;-79
2023/06/22 06:41:14;;;;;;;18.73;16.65;;;20.70;80.40;;;;;;6031881;23;20010;-79
2023/06/22 06:43:39;;;;;;;23.08;18.00;;;20.80;79.70;;;;;;6056335;23;20054;-79
2023/06/22 06:46:05;;;;;;;20.35;16.90;;;21.00;78.70;;;;;;6030928;23;20011;-79
2023/06/22 06:48:30;;;;;;;20.60;17.38;;;21.10;79.70;;;;;;6054931;23;20327;-80
2023/06/22 06:50:56;;;;;;;22.27;14.85;;;21.20;81.40;;;;;;6055053;23;20017;-80
2023/06/22 06:53:22;;;;;;;23.27;15.52;;;21.40;80.90;;;;;;6030292;23;20077;-79
2023/06/22 06:55:48;;;;;;;21.63;14.48;;;21.50;80.10;;;;;;6054556;23;20019;-80
2023/06/22 06:58:13;;;;;;;19.38;13.30;;;21.60;80.60;;;;;;6055718;23;20090;-80
2023/06/22 07:00:39;;;;;;;19.88;14.82;;;21.70;79.10;;;;;;6033213;23;20017;-80
2023/06/22 07:03:05;;;;;;;36.75;16.73;;;21.80;79.70;;;;;;6031888;23;20047;-80
2023/06/22 07:05:30;;;;;;;28.80;15.70;;;21.90;79.50;;;;;;6054914;23;20086;-79
2023/06/22 07:07:56;;;;;;;32.55;16.40;;;22.00;78.20;;;;;;6055542;23;20034;-79
2023/06/22 07:10:22;;;;;;;22.58;15.68;;;22.10;78.30;;;;;;6057077;23;20014;-79
2023/06/22 07:12:47;;;;;;;17.75;15.13;;;22.20;79.80;;;;;;6055197;23;20049;-79
2023/06/22 07:15:14;;;;;;;20.50;15.32;;;22.30;79.70;;;;;;6055789;23;20011;-79
2023/06/22 07:17:42;;;;;;;21.50;14.95;;;22.30;80.10;;;;;;6055821;23;20015;-78
2023/06/22 07:20:10;;;;;;;21.23;16.17;;;22.50;78.80;;;;;;6056149;23;20019;-79
2023/06/22 07:22:36;;;;;;;21.63;15.07;;;22.50;79.30;;;;;;6032181;23;20022;-80
2023/06/22 07:25:08;;;;;;;14.85;13.00;;;22.60;78.00;;;;;;6031718;23;20015;-79
2023/06/22 07:27:38;;;;;;;18.67;11.35;;;22.60;77.60;;;;;;6054952;23;20019;-79
2023/06/22 07:30:05;;;;;;;14.98;9.95;;;22.60;75.30;;;;;;6055046;23;20007;-79
2023/06/22 07:32:30;;;;;;;20.13;16.83;;;22.60;75.60;;;;;;6055141;23;20011;-80
2023/06/22 07:34:56;;;;;;;10.68;8.82;;;22.60;76.10;;;;;;6055560;23;20021;-80
2023/06/22 07:37:21;;;;;;;15.77;13.55;;;22.60;74.80;;;;;;6030820;23;20046;-79
2023/06/22 07:39:47;;;;;;;16.42;11.75;;;22.60;76.40;;;;;;6056246;23;20038;-79
2023/06/22 07:42:12;;;;;;;16.35;14.52;;;22.60;75.40;;;;;;6031151;23;20010;-79
2023/06/22 07:44:38;;;;;;;24.10;19.05;;;22.50;75.90;;;;;;6056201;23;20430;-80
2023/06/22 07:47:04;;;;;;;25.48;20.50;;;22.60;77.90;;;;;;6030832;23;20094;-80
2023/06/22 07:49:29;;;;;;;24.38;20.38;;;22.60;81.50;;;;;;6054385;23;20542;-80
2023/06/22 07:51:55;;;;;;;13.18;11.30;;;22.50;81.80;;;;;;6041797;23;20027;-79
2023/06/22 07:54:20;;;;;;;18.48;15.05;;;22.40;81.50;;;;;;6053552;23;20015;-80
2023/06/22 07:56:46;;;;;;;14.52;11.95;;;22.40;82.20;;;;;;6031714;23;20015;-79
2023/06/22 07:59:12;;;;;;;27.38;21.38;;;22.40;80.20;;;;;;6032040;23;20062;-79
2023/06/22 08:01:37;;;;;;;27.48;23.65;;;22.40;83.90;;;;;;6031674;23;20015;-79
2023/06/22 08:04:03;;;;;;;30.00;22.60;;;22.40;84.50;;;;;;6054998;23;20046;-79
2023/06/22 08:06:30;;;;;;;27.42;24.45;;;22.40;87.70;;;;;;6054681;23;20457;-80
2023/06/22 08:08:56;;;;;;;30.73;23.08;;;22.40;88.90;;;;;;6057036;23;20070;-80
2023/06/22 08:11:23;;;;;;;26.38;22.33;;;22.40;89.40;;;;;;6033374;23;20484;-80
2023/06/22 08:13:49;;;;;;;22.50;20.30;;;22.40;89.70;;;;;;6057610;23;20375;-80
2023/06/22 08:16:15;;;;;;;20.27;17.63;;;22.30;90.50;;;;;;6033142;23;20049;-80
2023/06/22 08:18:40;;;;;;;28.27;21.90;;;22.30;91.70;;;;;;6058293;23;20015;-80
2023/06/22 08:21:06;;;;;;;28.92;20.10;;;22.20;92.30;;;;;;6056165;23;20848;-81
2023/06/22 08:23:31;;;;;;;23.80;21.15;;;22.30;93.10;;;;;;6056566;23;20550;-81
2023/06/22 08:25:57;;;;;;;24.10;21.30;;;22.20;92.50;;;;;;6033006;23;20048;-81
2023/06/22 08:28:22;;;;;;;26.13;21.55;;;22.20;93.30;;;;;;6056776;23;20015;-81
2023/06/22 08:30:48;;;;;;;29.10;21.70;;;22.30;94.00;;;;;;6056299;23;20090;-80
2023/06/22 08:33:13;;;;;;;25.73;20.80;;;22.30;94.10;;;;;;6056889;23;20096;-81
2023/06/22 08:35:39;;;;;;;23.90;20.55;;;22.40;94.60;;;;;;6034069;23;20527;-81
2023/06/22 08:38:04;;;;;;;27.00;20.85;;;22.50;94.00;;;;;;6032874;23;20022;-80
2023/06/22 08:40:30;;;;;;;23.40;20.55;;;22.50;94.90;;;;;;6032262;23;20517;-80
2023/06/22 08:42:56;;;;;;;26.65;20.52;;;22.60;93.80;;;;;;6058628;23;20476;-80
2023/06/22 08:45:21;;;;;;;20.70;18.50;;;22.80;96.40;;;;;;6056554;23;20428;-81
2023/06/22 08:47:47;;;;;;;26.77;20.42;;;22.80;95.40;;;;;;6056046;23;20568;-80
2023/06/22 08:50:13;;;;;;;26.23;19.55;;;23.00;95.90;;;;;;6033699;23;20007;-80
2023/06/22 08:52:41;;;;;;;22.23;18.73;;;23.00;94.70;;;;;;6057257;23;20086;-80
2023/06/22 08:55:07;;;;;;;23.50;20.13;;;23.00;94.10;;;;;;6032661;23;20090;-81
2023/06/22 08:57:32;;;;;;;18.33;14.05;;;23.20;96.40;;;;;;6008735;23;20098;-81
2023/06/22 08:59:58;;;;;;;20.88;18.23;;;23.30;94.70;;;;;;6031128;23;20450;-81
2023/06/22 09:02:30;;;;;;;21.25;15.25;;;23.30;95.30;;;;;;6056184;23;20022;-80
2023/06/22 09:04:56;;;;;;;22.17;18.75;;;23.40;94.70;;;;;;6055342;23;20035;-82
2023/06/22 09:07:24;;;;;;;24.13;18.38;;;23.50;96.00;;;;;;6056458;23;20489;-81
2023/06/22 09:09:50;;;;;;;18.92;13.63;;;23.60;94.50;;;;;;6057116;23;20533;-81
2023/06/22 09:12:16;;;;;;;23.02;17.67;;;23.80;94.40;;;;;;6055036;23;20015;-80
2023/06/22 09:14:42;;;;;;;21.67;18.20;;;23.90;95.00;;;;;;6033373;23;20198;-80
2023/06/22 09:17:07;;;;;;;18.55;16.67;;;24.20;95.00;;;;;;6056753;23;20653;-80
2023/06/22 09:19:33;;;;;;;20.48;17.67;;;24.40;95.30;;;;;;6031728;23;21949;-78
2023/06/22 09:21:59;;;;;;;19.75;17.08;;;24.80;96.70;;;;;;6057167;23;20026;-80
2023/06/22 09:24:25;;;;;;;13.38;11.90;;;25.10;96.40;;;;;;6032684;23;20003;-80
2023/06/22 09:26:51;;;;;;;18.35;16.38;;;25.30;94.20;;;;;;6033127;23;20078;-81
2023/06/22 09:29:16;;;;;;;15.70;14.10;;;25.60;95.90;;;;;;6055309;23;20023;-80
2023/06/22 09:31:42;;;;;;;16.40;14.63;;;26.10;97.70;;;;;;6057371;23;20007;-79
2023/06/22 09:34:08;;;;;;;17.15;15.43;;;26.60;98.70;;;;;;6056563;23;20014;-79
2023/06/22 09:36:33;;;;;;;16.80;14.00;;;27.10;98.70;;;;;;6056291;23;20014;-78
2023/06/22 09:39:01;;;;;;;16.92;13.73;;;27.50;98.10;;;;;;6056942;23;20094;-80
2023/06/22 09:41:27;;;;;;;17.58;15.75;;;27.80;98.00;;;;;;6033265;23;20405;-80
2023/06/22 09:43:53;;;;;;;17.60;13.45;;;28.30;97.30;;;;;;6033594;23;20018;-82
2023/06/22 09:46:21;;;;;;;31.67;15.23;;;28.40;95.90;;;;;;6057570;23;20013;-81
2023/06/22 09:48:46;;;;;;;18.00;14.82;;;28.80;96.90;;;;;;6055822;23;20065;-81
2023/06/22 09:51:12;;;;;;;17.90;14.45;;;29.00;93.50;;;;;;6034365;23;20465;-81
2023/06/22 09:53:38;;;;;;;19.08;13.98;;;29.20;93.20;;;;;;6032742;23;20014;-81
2023/06/22 09:56:03;;;;;;;20.05;14.57;;;29.30;93.90;;;;;;6032100;23;20051;-82
2023/06/22 09:58:29;;;;;;;16.77;14.75;;;29.40;93.40;;;;;;6033182;23;20015;-81
2023/06/22 10:00:55;;;;;;;17.42;13.00;;;29.50;92.90;;;;;;6057179;23;20010;-80
2023/06/22 10:03:21;;;;;;;18.00;14.75;;;29.70;91.60;;;;;;6032045;23;20095;-81
2023/06/22 10:05:46;;;;;;;17.52;14.65;;;29.80;91.80;;;;;;6057463;23;20018;-80
2023/06/22 10:08:12;;;;;;;14.27;12.80;;;30.00;91.70;;;;;;6056952;23;20023;-81
2023/06/22 10:10:37;;;;;;;16.42;14.70;;;30.20;90.80;;;;;;6056664;23;20119;-81
2023/06/22 10:13:11;;;;;;;17.65;15.75;;;30.40;90.10;;;;;;6055338;23;20018;-81
2023/06/22 10:15:37;;;;;;;20.00;14.57;;;30.60;88.80;;;;;;6032619;23;20011;-80
2023/06/22 10:18:02;;;;;;;13.90;12.57;;;30.80;87.90;;;;;;6031516;23;20010;-80
2023/06/22 10:20:28;;;;;;;17.42;12.93;;;31.00;86.50;;;;;;6055537;23;20060;-81
2023/06/22 10:22:54;;;;;;;18.83;14.73;;;31.30;85.70;;;;;;6055667;23;20014;-80
2023/06/22 10:25:20;;;;;;;16.20;14.48;;;31.40;80.50;;;;;;6031035;23;20074;-80
2023/06/22 10:27:45;;;;;;;23.10;15.00;;;31.70;83.10;;;;;;5996334;23;20061;-80
2023/06/22 10:30:14;;;;;;;17.17;15.10;;;31.90;82.00;;;;;;6054827;23;20365;-80
2023/06/22 10:32:40;;;;;;;15.98;11.88;;;32.10;80.70;;;;;;6008942;23;20003;-81
2023/06/22 10:35:06;;;;;;;13.15;10.75;;;32.20;79.00;;;;;;6030741;23;20015;-81
2023/06/22 10:37:31;;;;;;;17.45;15.27;;;32.30;80.40;;;;;;6054759;23;20603;-80
2023/06/22 10:39:57;;;;;;;21.02;14.93;;;32.60;77.10;;;;;;6055298;23;20011;-80
2023/06/22 10:42:23;;;;;;;16.85;15.10;;;32.70;77.80;;;;;;6031982;23;20014;-80
2023/06/22 10:44:48;;;;;;;14.95;13.60;;;32.80;77.80;;;;;;6055583;23;20350;-79
2023/06/22 10:47:14;;;;;;;14.80;11.77;;;32.90;74.00;;;;;;6032825;23;20062;-78
2023/06/22 10:49:39;;;;;;;18.80;14.82;;;32.80;73.20;;;;;;6056175;23;20649;-79
2023/06/22 10:52:07;;;;;;;16.13;14.48;;;32.90;73.20;;;;;;6031935;23;20023;-79
2023/06/22 10:54:33;;;;;;;17.05;14.98;;;32.90;73.20;;;;;;6031687;23;20022;-79
2023/06/22 10:56:59;;;;;;;10.15;9.13;;;32.80;72.70;;;;;;6053568;23;20022;-78
2023/06/22 10:59:25;;;;;;;13.43;12.02;;;32.70;71.20;;;;;;6030866;23;20025;-78
2023/06/22 11:01:51;;;;;;;14.95;12.93;;;32.60;70.40;;;;;;6055230;23;20025;-79
2023/06/22 11:04:17;;;;;;;14.88;12.15;;;32.60;71.30;;;;;;6009098;23;20014;-79
2023/06/22 11:06:43;;;;;;;14.73;13.27;;;32.40;70.70;;;;;;6031205;23;20332;-79
2023/06/22 11:09:09;;;;;;;14.18;10.43;;;32.30;69.50;;;;;;6031093;23;20522;-77
2023/06/22 11:11:34;;;;;;;13.70;12.35;;;32.10;69.40;;;;;;6055205;23;20011;-78
2023/06/22 11:14:00;;;;;;;14.85;13.30;;;31.90;69.50;;;;;;6055105;23;20504;-78
2023/06/22 11:16:25;;;;;;;12.18;10.98;;;31.60;72.80;;;;;;6029941;23;20007;-79
2023/06/22 11:18:51;;;;;;;14.60;13.07;;;31.20;74.10;;;;;;6055072;23;20073;-80
2023/06/22 11:21:16;;;;;;;17.95;15.57;;;30.90;77.20;;;;;;6056083;23;20018;-80
2023/06/22 11:23:42;;;;;;;18.40;15.02;;;30.40;80.10;;;;;;6054724;23;20011;-80
2023/06/22 11:26:07;;;;;;;16.83;15.20;;;30.00;80.10;;;;;;6055605;23;20021;-80
2023/06/22 11:28:33;;;;;;;17.67;14.90;;;29.60;80.80;;;;;;6055896;23;20631;-81
2023/06/22 11:30:59;;;;;;;12.93;11.57;;;29.30;81.70;;;;;;6032158;23;20349;-84
2023/06/22 11:33:24;;;;;;;13.95;11.38;;;28.90;84.10;;;;;;6056614;23;20046;-84
2023/06/22 11:35:50;;;;;;;22.67;14.77;;;28.60;86.70;;;;;;6030210;23;20024;-84
2023/06/22 11:38:15;;;;;;;17.92;13.20;;;28.20;87.40;;;;;;6053598;23;20438;-84
2023/06/22 11:40:41;;;;;;;16.17;10.10;;;27.80;89.80;;;;;;6055082;23;20011;-84
2023/06/22 11:43:06;;;;;;;15.48;10.57;;;27.60;90.60;;;;;;6029442;23;20026;-83
2023/06/22 11:45:32;;;;;;;16.50;14.02;;;27.40;91.10;;;;;;6054282;23;20018;-82
2023/06/22 11:47:58;;;;;;;30.48;16.02;;;27.20;92.30;;;;;;6056426;23;20699;-83
2023/06/22 11:50:24;;;;;;;34.40;18.67;;;27.00;92.90;;;;;;6033149;23;20018;-82
2023/06/22 11:52:49;;;;;;;21.10;13.60;;;26.80;94.30;;;;;;6021724;23;20390;-83
2023/06/22 11:55:15;;;;;;;25.10;16.88;;;26.60;94.40;;;;;;6008254;23;20047;-83
2023/06/22 11:57:53;;;;;;;23.10;16.98;;;26.40;94.10;;;;;;6048258;23;20070;-83
2023/06/22 12:00:20;;;;;;;39.67;20.33;;;26.20;94.80;;;;;;6036401;23;20038;-83
2023/06/22 12:02:45;;;;;;;26.55;20.00;;;25.90;95.20;;;;;;6062222;23;20433;-82
2023/06/22 12:05:12;;;;;;;32.80;21.92;;;25.80;94.00;;;;;;6061841;23;20014;-82
2023/06/22 12:07:37;;;;;;;20.83;18.58;;;25.50;95.00;;;;;;6038249;23;20022;-82
2023/06/22 12:10:03;;;;;;;28.85;22.08;;;25.30;96.10;;;;;;6062926;23;20350;-83
2023/06/22 12:12:29;;;;;;;28.17;22.42;;;25.20;95.30;;;;;;6038283;23;20011;-82
2023/06/22 12:14:54;;;;;;;24.65;22.13;;;25.10;98.00;;;;;;6061617;23;20078;-83
2023/06/22 12:17:20;;;;;;;29.48;23.20;;;25.10;98.10;;;;;;6061719;23;20047;-81
2023/06/22 12:19:46;;;;;;;30.27;27.15;;;25.00;98.10;;;;;;6038894;23;20023;-82
2023/06/22 12:22:11;;;;;;;31.65;28.17;;;25.00;99.90;;;;;;6036779;23;20014;-81
2023/06/22 12:24:37;;;;;;;31.73;28.50;;;24.90;99.90;;;;;;6058491;23;20007;-82
2023/06/22 12:27:03;;;;;;;28.63;25.67;;;24.90;99.90;;;;;;6034106;23;20021;-81